createdAt,value
2017-12-19T00:02:15.025Z,20.20
2017-12-19T00:04:42.653Z,18.57
2017-12-19T00:07:11.023Z,24.47
2017-12-19T00:09:39.424Z,21.77
2017-12-19T00:12:07.853Z,24.13
2017-12-19T00:14:35.472Z,17.00
2017-12-19T00:17:03.849Z,23.53
2017-12-19T00:19:32.265Z,20.90
2017-12-19T00:21:59.870Z,21.27
2017-12-19T00:24:27.476Z,23.60
2017-12-19T00:26:55.165Z,24.43
2017-12-19T00:29:22.765Z,21.33
2017-12-19T00:31:51.153Z,13.10
2017-12-19T00:34:19.553Z,15.90
2017-12-19T00:36:47.145Z,18.17
2017-12-19T00:39:14.782Z,18.57
2017-12-19T00:41:42.759Z,17.50
2017-12-19T00:44:10.381Z,18.37
2017-12-19T00:46:38.744Z,16.33
2017-12-19T00:49:06.390Z,23.23
2017-12-19T00:51:34.016Z,25.07
2017-12-19T00:54:01.637Z,20.97
2017-12-19T00:56:29.261Z,24.80
2017-12-19T00:58:56.848Z,21.20
2017-12-19T01:01:24.481Z,25.27
2017-12-19T01:03:52.072Z,24.70
2017-12-19T01:06:19.700Z,27.03
2017-12-19T01:08:47.304Z,24.30
2017-12-19T01:11:15.716Z,28.20
2017-12-19T01:13:43.374Z,24.23
2017-12-19T01:16:10.986Z,31.13
2017-12-19T01:18:39.387Z,28.07
2017-12-19T01:21:07.770Z,24.10
2017-12-19T01:23:36.146Z,24.57
2017-12-19T01:26:04.553Z,24.63
2017-12-19T01:28:32.153Z,20.10
2017-12-19T01:30:59.806Z,21.60
2017-12-19T01:33:27.416Z,22.10
2017-12-19T01:35:56.425Z,24.23
2017-12-19T01:38:24.042Z,23.37
2017-12-19T01:40:51.681Z,24.73
2017-12-19T01:43:19.311Z,19.57
2017-12-19T01:45:47.807Z,22.83
2017-12-19T01:48:15.414Z,24.50
2017-12-19T01:50:43.056Z,24.13
2017-12-19T01:53:10.661Z,25.07
2017-12-19T01:55:38.297Z,22.00
2017-12-19T01:58:06.677Z,24.63
2017-12-19T02:00:35.058Z,24.27
2017-12-19T02:03:03.452Z,24.07
2017-12-19T02:05:31.821Z,26.83
2017-12-19T02:07:59.458Z,20.53
2017-12-19T02:10:27.835Z,25.97
2017-12-19T02:12:56.298Z,25.63
2017-12-19T02:15:23.933Z,34.90
2017-12-19T02:17:51.573Z,33.87
2017-12-19T02:20:19.968Z,28.47
2017-12-19T02:22:47.655Z,27.97
2017-12-19T02:25:15.268Z,33.70
2017-12-19T02:27:42.905Z,26.97
2017-12-19T02:30:12.177Z,29.03
2017-12-19T02:32:39.801Z,35.23
2017-12-19T02:35:07.448Z,34.40
2017-12-19T02:37:35.834Z,32.50
2017-12-19T02:40:04.238Z,25.90
2017-12-19T02:42:43.893Z,30.20
2017-12-19T02:45:11.579Z,33.77
2017-12-19T02:47:39.235Z,32.20
2017-12-19T02:50:06.860Z,39.77
2017-12-19T02:52:34.500Z,28.20
2017-12-19T02:55:02.889Z,34.30
2017-12-19T02:57:31.285Z,39.87
2017-12-19T02:59:58.901Z,28.40
2017-12-19T03:02:26.547Z,29.10
2017-12-19T03:04:54.165Z,33.23
2017-12-19T03:07:21.965Z,31.03
2017-12-19T03:09:49.584Z,34.07
2017-12-19T03:12:17.277Z,33.70
2017-12-19T03:14:44.898Z,27.33
2017-12-19T03:17:13.321Z,31.47
2017-12-19T03:19:40.958Z,30.27
2017-12-19T03:22:08.598Z,32.53
2017-12-19T03:24:37.050Z,36.23
2017-12-19T03:27:04.678Z,37.77
2017-12-19T03:29:32.343Z,24.60
2017-12-19T03:31:59.975Z,26.67
2017-12-19T03:34:27.612Z,25.80
2017-12-19T03:36:55.989Z,43.07
2017-12-19T03:39:24.388Z,32.30
2017-12-19T03:41:52.008Z,31.73
2017-12-19T03:44:19.655Z,32.20
2017-12-19T03:46:47.277Z,34.37
2017-12-19T03:49:14.908Z,28.03
2017-12-19T03:51:43.373Z,22.57
2017-12-19T03:54:11.748Z,31.20
2017-12-19T03:56:39.426Z,38.07
2017-12-19T03:59:07.814Z,26.33
2017-12-19T04:01:36.224Z,27.50
2017-12-19T04:04:03.865Z,34.20
2017-12-19T04:06:32.240Z,28.93
2017-12-19T04:09:00.653Z,25.80
2017-12-19T04:11:28.279Z,31.30
2017-12-19T04:13:56.686Z,34.50
2017-12-19T04:16:24.310Z,30.87
2017-12-19T04:18:52.036Z,32.40
2017-12-19T04:21:19.692Z,38.63
2017-12-19T04:23:47.332Z,33.30
2017-12-19T04:26:15.003Z,30.83
2017-12-19T04:28:42.626Z,34.10
2017-12-19T04:31:11.046Z,33.33
2017-12-19T04:33:38.740Z,31.30
2017-12-19T04:36:06.401Z,34.87
2017-12-19T04:38:34.020Z,26.60
2017-12-19T04:41:01.664Z,30.27
2017-12-19T04:43:30.092Z,30.53
2017-12-19T04:45:57.694Z,29.03
2017-12-19T04:48:26.112Z,26.80
2017-12-19T04:50:53.722Z,24.60
2017-12-19T04:53:21.353Z,30.53
2017-12-19T04:55:48.980Z,51.20
2017-12-19T04:58:16.599Z,31.83
2017-12-19T05:00:44.245Z,36.60
2017-12-19T05:03:11.857Z,35.00
2017-12-19T05:05:39.515Z,37.83
2017-12-19T05:08:07.887Z,37.53
2017-12-19T05:10:36.273Z,45.07
2017-12-19T05:13:04.668Z,33.53
2017-12-19T05:15:32.304Z,31.03
2017-12-19T05:18:00.722Z,36.50
2017-12-19T05:20:28.369Z,42.30
2017-12-19T05:22:56.062Z,34.33
2017-12-19T05:25:23.689Z,28.73
2017-12-19T05:27:51.328Z,34.20
2017-12-19T05:30:19.715Z,29.90
2017-12-19T05:32:48.129Z,27.67
2017-12-19T05:35:15.802Z,27.70
2017-12-19T05:37:44.232Z,25.07
2017-12-19T05:40:12.606Z,20.80
2017-12-19T05:42:40.281Z,27.70
2017-12-19T05:45:08.647Z,27.03
2017-12-19T05:47:37.061Z,22.93
2017-12-19T05:50:04.857Z,28.90
2017-12-19T05:52:32.468Z,25.83
2017-12-19T05:55:00.170Z,26.23
2017-12-19T05:57:27.859Z,27.60
2017-12-19T05:59:55.524Z,33.00
2017-12-19T06:02:23.133Z,28.17
2017-12-19T06:04:50.751Z,28.33
2017-12-19T06:07:18.381Z,32.43
2017-12-19T06:09:46.022Z,34.07
2017-12-19T06:12:13.765Z,22.77
2017-12-19T06:14:41.388Z,32.70
2017-12-19T06:17:10.533Z,34.60
2017-12-19T06:19:38.162Z,36.83
2017-12-19T06:22:06.576Z,30.30
2017-12-19T06:24:34.196Z,35.80
2017-12-19T06:27:01.813Z,34.57
2017-12-19T06:29:29.445Z,27.50
2017-12-19T06:31:57.147Z,23.70
2017-12-19T06:34:24.806Z,35.90
2017-12-19T06:36:52.428Z,25.33
2017-12-19T06:39:20.063Z,27.90
2017-12-19T06:41:47.688Z,24.77
2017-12-19T06:44:15.329Z,28.23
2017-12-19T06:46:42.931Z,30.50
2017-12-19T06:49:12.078Z,27.03
2017-12-19T06:51:39.704Z,28.37
2017-12-19T06:54:08.128Z,27.37
2017-12-19T06:56:36.762Z,23.83
2017-12-19T06:59:04.405Z,22.00
2017-12-19T07:01:33.531Z,26.80
2017-12-19T07:04:02.069Z,25.50
2017-12-19T07:06:29.718Z,25.10
2017-12-19T07:08:57.331Z,23.13
2017-12-19T07:11:24.997Z,20.70
2017-12-19T07:13:53.392Z,25.60
2017-12-19T07:16:21.816Z,21.50
2017-12-19T07:18:49.436Z,19.90
2017-12-19T07:21:17.110Z,27.10
2017-12-19T07:23:44.724Z,24.80
2017-12-19T07:26:12.394Z,23.07
2017-12-19T07:28:40.773Z,23.00
2017-12-19T07:31:09.144Z,20.50
2017-12-19T07:33:36.781Z,19.83
2017-12-19T07:36:04.405Z,22.00
2017-12-19T07:38:32.028Z,19.03
2017-12-19T07:41:01.178Z,19.23
2017-12-19T07:43:28.836Z,20.97
2017-12-19T07:45:56.436Z,23.70
2017-12-19T07:48:24.076Z,23.50
2017-12-19T07:50:51.712Z,21.30
2017-12-19T07:53:19.373Z,20.07
2017-12-19T07:55:46.985Z,19.03
2017-12-19T07:58:14.585Z,20.30
2017-12-19T08:00:42.978Z,16.30
2017-12-19T08:03:10.592Z,19.50
2017-12-19T08:05:39.744Z,18.50
2017-12-19T08:08:07.370Z,17.80
2017-12-19T08:10:35.729Z,21.13
2017-12-19T08:13:03.358Z,17.80
2017-12-19T08:15:30.965Z,21.37
2017-12-19T08:17:59.374Z,21.27
2017-12-19T08:20:26.989Z,21.10
2017-12-19T08:22:54.621Z,16.73
2017-12-19T08:25:22.230Z,12.30
2017-12-19T08:27:50.640Z,19.73
2017-12-19T08:30:18.244Z,14.20
2017-12-19T08:32:45.845Z,16.50
2017-12-19T08:35:13.473Z,21.10
2017-12-19T08:37:42.584Z,14.73
2017-12-19T08:40:10.986Z,15.50
2017-12-19T08:42:38.588Z,16.10
2017-12-19T08:45:06.207Z,21.90
2017-12-19T08:47:33.899Z,16.30
2017-12-19T08:50:01.517Z,12.13
2017-12-19T08:52:29.908Z,14.70
2017-12-19T08:54:57.517Z,13.50
2017-12-19T08:57:25.157Z,20.37
2017-12-19T08:59:52.763Z,12.50
2017-12-19T09:02:21.129Z,20.93
2017-12-19T09:04:48.868Z,16.60
2017-12-19T09:07:16.475Z,16.47
2017-12-19T09:09:44.904Z,13.37
2017-12-19T09:12:12.506Z,14.17
2017-12-19T09:14:42.805Z,11.07
2017-12-19T09:17:10.581Z,12.03
2017-12-19T09:19:38.175Z,11.93
2017-12-19T09:22:05.810Z,18.53
2017-12-19T09:24:33.397Z,17.37
2017-12-19T09:27:01.816Z,15.63
2017-12-19T09:29:29.411Z,14.10
2017-12-19T09:31:57.041Z,10.50
2017-12-19T09:34:24.696Z,10.63
2017-12-19T09:36:52.365Z,17.00
2017-12-19T09:39:19.957Z,15.57
2017-12-19T09:41:47.577Z,16.93
2017-12-19T09:44:15.174Z,12.77
2017-12-19T09:46:42.807Z,10.83
2017-12-19T09:49:10.405Z,14.50
2017-12-19T09:51:38.793Z,20.10
2017-12-19T09:54:07.151Z,14.77
2017-12-19T09:56:34.766Z,17.53
2017-12-19T09:59:02.358Z,18.37
2017-12-19T10:01:30.009Z,20.40
2017-12-19T10:03:57.718Z,21.40
2017-12-19T10:06:26.086Z,14.27
2017-12-19T10:08:53.721Z,17.27
2017-12-19T10:11:21.378Z,9.93
2017-12-19T10:13:48.997Z,13.43
2017-12-19T10:16:17.410Z,11.03
2017-12-19T10:18:53.559Z,10.90
2017-12-19T10:21:21.433Z,11.60
2017-12-19T10:23:49.250Z,12.13
2017-12-19T10:26:17.638Z,10.47
2017-12-19T10:28:45.545Z,12.97
2017-12-19T10:31:13.149Z,12.50
2017-12-19T10:33:40.777Z,10.67
2017-12-19T10:36:08.439Z,8.80
2017-12-19T10:38:36.033Z,18.07
2017-12-19T10:41:04.428Z,13.50
2017-12-19T10:43:32.026Z,13.70
2017-12-19T10:45:59.689Z,21.03
2017-12-19T10:48:27.281Z,13.30
2017-12-19T10:50:55.657Z,13.20
2017-12-19T10:53:24.779Z,15.90
2017-12-19T10:55:53.146Z,16.00
2017-12-19T10:58:21.560Z,10.37
2017-12-19T11:00:49.185Z,12.30
2017-12-19T11:03:17.018Z,12.80
2017-12-19T11:05:44.895Z,13.93
2017-12-19T11:08:12.480Z,11.53
2017-12-19T11:10:40.109Z,14.00
2017-12-19T11:13:07.708Z,13.30
2017-12-19T11:15:36.110Z,14.80
2017-12-19T11:18:03.728Z,10.93
2017-12-19T11:20:31.340Z,14.50
2017-12-19T11:22:58.981Z,13.73
2017-12-19T11:25:27.403Z,13.53
2017-12-19T11:27:55.036Z,9.67
2017-12-19T11:30:22.645Z,11.60
2017-12-19T11:32:50.317Z,17.40
2017-12-19T11:35:17.943Z,15.67
2017-12-19T11:37:45.569Z,14.10
2017-12-19T11:40:13.271Z,23.77
2017-12-19T11:42:40.873Z,17.03
2017-12-19T11:45:08.600Z,15.20
2017-12-19T11:47:36.290Z,18.00
2017-12-19T11:50:04.698Z,16.83
2017-12-19T11:52:32.291Z,14.00
2017-12-19T11:54:59.948Z,23.33
2017-12-19T11:57:27.657Z,11.90
2017-12-19T11:59:55.240Z,23.33
2017-12-19T12:02:22.897Z,21.30
2017-12-19T12:04:51.270Z,17.23
2017-12-19T12:07:20.051Z,22.93
2017-12-19T12:09:48.703Z,16.60
2017-12-19T12:12:16.681Z,24.40
2017-12-19T12:14:44.540Z,24.50
2017-12-19T12:17:12.289Z,23.43
2017-12-19T12:19:40.068Z,21.33
2017-12-19T12:22:07.664Z,17.07
2017-12-19T12:24:36.057Z,17.83
2017-12-19T12:27:03.657Z,28.30
2017-12-19T12:29:31.309Z,19.00
2017-12-19T12:31:58.920Z,13.93
2017-12-19T12:34:27.335Z,22.33
2017-12-19T12:36:54.932Z,18.13
2017-12-19T12:39:22.581Z,17.60
2017-12-19T12:41:50.173Z,18.03
2017-12-19T12:44:17.809Z,17.20
2017-12-19T12:46:45.398Z,18.73
2017-12-19T12:49:13.778Z,17.83
2017-12-19T12:51:41.417Z,18.00
2017-12-19T12:54:09.065Z,21.83
2017-12-19T12:56:36.682Z,20.97
2017-12-19T12:59:05.112Z,19.10
2017-12-19T13:01:32.750Z,18.83
2017-12-19T13:04:00.343Z,17.20
2017-12-19T13:06:27.984Z,16.00
2017-12-19T13:08:55.580Z,13.73
2017-12-19T13:11:23.200Z,17.80
2017-12-19T13:13:50.804Z,12.30
2017-12-19T13:16:18.537Z,12.30
2017-12-19T13:18:46.186Z,11.27
2017-12-19T13:21:13.821Z,17.17
2017-12-19T13:23:41.640Z,20.47
2017-12-19T13:26:09.294Z,16.07
2017-12-19T13:28:36.939Z,14.90
2017-12-19T13:31:04.567Z,10.53
2017-12-19T13:33:33.021Z,13.90
2017-12-19T13:36:00.653Z,14.23
2017-12-19T13:38:28.250Z,17.60
2017-12-19T13:40:56.619Z,12.67
2017-12-19T13:43:24.688Z,10.43
2017-12-19T13:45:52.509Z,10.13
2017-12-19T13:48:20.491Z,14.17
2017-12-19T13:50:48.161Z,12.67
2017-12-19T13:53:15.962Z,9.67
2017-12-19T13:55:43.947Z,8.20
2017-12-19T13:58:12.504Z,13.50
2017-12-19T14:00:40.149Z,11.50
2017-12-19T14:03:07.870Z,13.97
2017-12-19T14:05:35.556Z,8.90
2017-12-19T14:08:03.422Z,6.97
2017-12-19T14:10:38.504Z,6.07
2017-12-19T14:13:08.606Z,15.20
2017-12-19T14:15:36.458Z,11.10
2017-12-19T14:18:04.316Z,10.77
2017-12-19T14:20:31.977Z,8.77
2017-12-19T14:22:59.605Z,17.40
2017-12-19T14:25:27.306Z,8.90
2017-12-19T14:27:54.954Z,11.33
2017-12-19T14:30:23.000Z,12.27
2017-12-19T14:32:50.696Z,12.70
2017-12-19T14:35:18.664Z,10.73
2017-12-19T14:37:46.436Z,14.97
2017-12-19T14:40:14.072Z,9.30
2017-12-19T14:42:41.705Z,13.53
2017-12-19T14:45:09.385Z,21.00
2017-12-19T14:47:37.074Z,14.93
2017-12-19T14:50:04.743Z,16.33
2017-12-19T14:52:34.502Z,14.67
2017-12-19T14:55:03.444Z,22.33
2017-12-19T14:57:31.086Z,28.67
2017-12-19T14:59:58.757Z,24.20
2017-12-19T15:02:26.352Z,22.73
2017-12-19T15:04:53.954Z,25.30
2017-12-19T15:07:21.608Z,16.43
2017-12-19T15:09:49.229Z,20.10
2017-12-19T15:12:16.849Z,29.20
2017-12-19T15:14:44.481Z,17.27
2017-12-19T15:17:12.886Z,17.00
2017-12-19T15:19:40.497Z,18.07
2017-12-19T15:22:08.129Z,20.30
2017-12-19T15:24:35.749Z,21.50
2017-12-19T15:27:03.358Z,20.33
2017-12-19T15:29:31.000Z,16.77
2017-12-19T15:31:58.689Z,20.13
2017-12-19T15:34:26.539Z,15.97
2017-12-19T15:36:54.163Z,19.37
2017-12-19T15:39:21.800Z,15.37
2017-12-19T15:41:49.396Z,17.73
2017-12-19T15:44:16.990Z,14.87
2017-12-19T15:46:44.662Z,17.13
2017-12-19T15:49:12.297Z,17.03
2017-12-19T15:51:39.954Z,17.57
2017-12-19T15:54:07.560Z,18.67
2017-12-19T15:56:35.399Z,16.83
2017-12-19T15:59:02.997Z,20.07
2017-12-19T16:01:30.625Z,17.73
2017-12-19T16:03:58.240Z,19.13
2017-12-19T16:06:25.863Z,17.97
2017-12-19T16:08:53.482Z,24.77
2017-12-19T16:11:21.143Z,15.13
2017-12-19T16:13:48.753Z,17.70
2017-12-19T16:16:16.341Z,18.53
2017-12-19T16:18:44.747Z,28.07
2017-12-19T16:21:12.344Z,23.27
2017-12-19T16:23:40.082Z,21.13
2017-12-19T16:26:07.690Z,17.40
2017-12-19T16:28:36.107Z,24.00
2017-12-19T16:31:03.701Z,31.93
2017-12-19T16:33:31.292Z,18.80
2017-12-19T16:35:59.712Z,18.20
2017-12-19T16:38:27.608Z,33.33
2017-12-19T16:40:55.253Z,13.07
2017-12-19T16:43:22.849Z,16.30
2017-12-19T16:45:50.477Z,17.20
2017-12-19T16:48:18.065Z,17.73
2017-12-19T16:50:46.485Z,30.73
2017-12-19T16:53:14.105Z,15.17
2017-12-19T16:55:41.721Z,23.80
2017-12-19T16:58:09.616Z,17.00
2017-12-19T17:00:37.583Z,18.70
2017-12-19T17:03:05.456Z,23.63
2017-12-19T17:05:33.318Z,21.47
2017-12-19T17:08:01.189Z,20.37
2017-12-19T17:10:29.109Z,16.80
2017-12-19T17:12:57.028Z,20.70
2017-12-19T17:15:24.889Z,23.43
2017-12-19T17:17:52.819Z,17.77
2017-12-19T17:20:20.726Z,26.70
2017-12-19T17:22:48.803Z,22.37
2017-12-19T17:25:16.655Z,14.50
2017-12-19T17:27:44.434Z,20.00
2017-12-19T17:30:12.400Z,18.43
2017-12-19T17:32:40.273Z,21.03
2017-12-19T17:35:09.752Z,19.67
2017-12-19T17:37:37.640Z,27.90
2017-12-19T17:40:05.406Z,21.60
2017-12-19T17:42:33.581Z,21.00
2017-12-19T17:45:01.449Z,21.50
2017-12-19T17:47:29.303Z,17.17
2017-12-19T17:49:57.380Z,17.50
2017-12-19T17:52:25.245Z,17.97
2017-12-19T17:54:53.222Z,21.17
2017-12-19T17:57:21.190Z,25.53
2017-12-19T17:59:49.058Z,22.80
2017-12-19T18:02:17.021Z,26.43
2017-12-19T18:04:44.888Z,29.87
2017-12-19T18:07:12.871Z,20.53
2017-12-19T18:09:40.830Z,26.60
2017-12-19T18:12:08.697Z,21.20
2017-12-19T18:14:36.665Z,21.13
2017-12-19T18:17:04.261Z,19.47
2017-12-19T18:19:32.656Z,22.30
2017-12-19T18:22:00.267Z,24.20
2017-12-19T18:24:28.240Z,26.70
2017-12-19T18:26:56.106Z,20.33
2017-12-19T18:29:24.080Z,21.90
2017-12-19T18:31:51.926Z,32.10
2017-12-19T18:34:19.807Z,23.10
2017-12-19T18:36:47.766Z,28.40
2017-12-19T18:39:15.639Z,26.20
2017-12-19T18:41:46.086Z,30.10
2017-12-19T18:44:14.154Z,29.13
2017-12-19T18:46:42.102Z,22.83
2017-12-19T18:49:09.966Z,31.73
2017-12-19T18:51:37.593Z,17.83
2017-12-19T18:54:05.201Z,27.37
2017-12-19T18:56:32.830Z,23.33
2017-12-19T18:59:00.441Z,25.20
2017-12-19T19:01:28.799Z,28.87
2017-12-19T19:03:56.461Z,26.30
2017-12-19T19:06:24.091Z,28.50
2017-12-19T19:08:51.709Z,31.43
2017-12-19T19:11:20.081Z,25.50
2017-12-19T19:13:48.469Z,30.60
2017-12-19T19:16:16.861Z,22.13
2017-12-19T19:18:45.249Z,28.70
2017-12-19T19:21:12.878Z,27.10
2017-12-19T19:23:41.537Z,29.40
2017-12-19T19:26:09.416Z,24.87
2017-12-19T19:28:38.192Z,25.53
2017-12-19T19:31:06.058Z,25.27
2017-12-19T19:33:33.925Z,30.50
2017-12-19T19:36:01.901Z,28.43
2017-12-19T19:38:29.760Z,32.80
2017-12-19T19:40:57.631Z,32.07
2017-12-19T19:43:25.230Z,23.60
2017-12-19T19:45:53.619Z,33.80
2017-12-19T19:48:21.221Z,24.60
2017-12-19T19:50:48.846Z,24.97
2017-12-19T19:53:16.457Z,30.57
2017-12-19T19:55:44.102Z,33.23
2017-12-19T19:58:11.697Z,23.53
2017-12-19T20:00:39.297Z,31.47
2017-12-19T20:03:06.929Z,32.00
2017-12-19T20:05:35.324Z,23.27
2017-12-19T20:08:02.959Z,26.03
2017-12-19T20:10:31.318Z,25.10
2017-12-19T20:12:58.946Z,23.00
2017-12-19T20:15:26.546Z,23.83
2017-12-19T20:17:54.174Z,35.07
2017-12-19T20:20:21.781Z,27.67
2017-12-19T20:22:49.402Z,23.40
2017-12-19T20:25:17.016Z,40.70
2017-12-19T20:27:45.474Z,28.93
2017-12-19T20:30:13.057Z,29.67
2017-12-19T20:32:41.421Z,36.73
2017-12-19T20:35:09.810Z,44.30
2017-12-19T20:37:38.236Z,36.43
2017-12-19T20:42:39.938Z,38.57
2017-12-19T20:45:09.106Z,49.33
2017-12-19T20:47:36.706Z,30.53
2017-12-19T20:50:04.338Z,28.73
2017-12-19T20:52:31.938Z,58.90
2017-12-19T20:55:00.333Z,33.27
2017-12-19T20:57:27.933Z,39.80
2017-12-19T20:59:55.533Z,42.63
2017-12-19T21:02:23.164Z,36.90
2017-12-19T21:04:50.754Z,38.60
2017-12-19T21:07:18.378Z,37.93
2017-12-19T21:09:45.977Z,29.67
2017-12-19T21:12:14.550Z,40.17
2017-12-19T21:14:42.921Z,20.73
2017-12-19T21:17:10.550Z,24.40
2017-12-19T21:19:38.149Z,23.63
2017-12-19T21:22:05.789Z,35.20
2017-12-19T21:24:33.385Z,29.20
2017-12-19T21:27:01.749Z,25.57
2017-12-19T21:29:29.383Z,45.30
2017-12-19T21:31:57.054Z,32.63
2017-12-19T21:34:24.705Z,61.40
2017-12-19T21:36:52.297Z,65.43
2017-12-19T21:39:19.933Z,51.30
2017-12-19T21:41:47.549Z,45.00
2017-12-19T21:44:15.207Z,27.90
2017-12-19T21:46:43.573Z,47.93
2017-12-19T21:49:11.979Z,43.10
2017-12-19T21:51:39.607Z,38.90
2017-12-19T21:54:07.212Z,45.47
2017-12-19T21:56:34.837Z,31.70
2017-12-19T21:59:03.206Z,50.80
2017-12-19T22:01:31.616Z,25.40
2017-12-19T22:03:59.213Z,28.00
2017-12-19T22:06:26.845Z,34.17
2017-12-19T22:08:54.449Z,29.27
2017-12-19T22:11:22.083Z,35.20
2017-12-19T22:13:49.698Z,46.17
2017-12-19T22:16:18.092Z,27.83
2017-12-19T22:18:45.696Z,48.13
2017-12-19T22:21:13.333Z,28.33
2017-12-19T22:23:40.941Z,19.60
2017-12-19T22:26:08.552Z,36.87
2017-12-19T22:28:36.181Z,25.43
2017-12-19T22:31:04.561Z,33.90
2017-12-19T22:33:32.994Z,35.73
2017-12-19T22:36:00.628Z,30.27
2017-12-19T22:38:28.264Z,29.83
2017-12-19T22:40:58.311Z,29.60
2017-12-19T22:43:25.952Z,32.67
2017-12-19T22:45:54.424Z,32.13
2017-12-19T22:48:22.801Z,36.73
2017-12-19T22:50:51.201Z,35.30
2017-12-19T22:53:18.826Z,38.50
2017-12-19T22:55:46.425Z,32.17
2017-12-19T22:58:14.048Z,31.40
2017-12-19T23:00:41.650Z,26.27
2017-12-19T23:03:09.324Z,27.30
2017-12-19T23:05:36.934Z,26.93
2017-12-19T23:08:04.569Z,29.57
2017-12-19T23:10:32.217Z,27.57
2017-12-19T23:12:59.889Z,28.00
2017-12-19T23:15:27.553Z,35.10
2017-12-19T23:17:55.238Z,35.23
2017-12-19T23:20:22.869Z,26.73
2017-12-19T23:22:50.651Z,27.30
2017-12-19T23:25:18.392Z,24.40
2017-12-19T23:27:46.021Z,28.07
2017-12-19T23:30:13.621Z,27.00
2017-12-19T23:32:41.269Z,27.90
2017-12-19T23:35:08.869Z,30.77
2017-12-19T23:37:36.478Z,27.47
2017-12-19T23:40:04.115Z,34.87
2017-12-19T23:42:32.489Z,29.73
2017-12-19T23:45:00.892Z,29.57
2017-12-19T23:47:28.501Z,30.73
2017-12-19T23:49:56.145Z,33.50
2017-12-19T23:52:23.746Z,31.67
2017-12-19T23:54:52.135Z,20.63
2017-12-19T23:57:20.534Z,31.00
2017-12-19T23:59:48.127Z,27.70
